Terminal Aerodrome Forecast
Issued by NWS

Home | Current Version | Previous Version | Graphics & Text | Print | Product List | Glossary On
Versions: 1 2 3 4 5 6 7 8 9 10 11 12 13 14 15 16 17 18 19 20 21 22 23
000
FTUS45 KGGW 061139
TAFOLF
TAF
KOLF 061139Z 0612/0712 26012KT P6SM BKN150 WS020/28040KT
     FM061800 27022G31KT P6SM FEW200
     FM062100 28028G40KT P6SM SCT080
     FM070000 29023G32KT P6SM SCT120=

USA.gov is the U.S. government's official web portal to all federal, state and local government web resources and services.